createdAt,value
2023-08-25T00:00:06.737Z,99937.09
2023-08-25T00:02:40.358Z,99943.16
2023-08-25T00:05:10.678Z,99918.00
2023-08-25T00:07:38.415Z,99908.97
2023-08-25T00:10:07.840Z,99910.69
2023-08-25T00:12:36.866Z,99911.25
2023-08-25T00:15:05.986Z,99905.66
2023-08-25T00:17:34.067Z,99906.78
2023-08-25T00:20:02.368Z,99924.28
2023-08-25T00:22:31.418Z,99920.88
2023-08-25T00:24:59.104Z,99905.09
2023-08-25T00:27:26.720Z,99883.66
2023-08-25T00:29:55.114Z,99861.16
2023-08-25T00:32:22.926Z,99865.81
2023-08-25T00:34:50.664Z,99858.63
2023-08-25T00:37:18.318Z,99851.69
2023-08-25T00:39:47.964Z,99844.28
2023-08-25T00:42:15.627Z,99833.03
2023-08-25T00:44:45.573Z,99827.97
2023-08-25T00:47:13.673Z,99821.28
2023-08-25T00:49:43.562Z,99818.66
2023-08-25T00:52:12.776Z,99813.84
2023-08-25T00:54:41.641Z,99790.44
2023-08-25T00:57:10.773Z,99775.97
2023-08-25T00:59:40.697Z,99755.84
2023-08-25T01:02:09.397Z,99741.91
2023-08-25T01:04:37.149Z,99724.41
2023-08-25T01:07:04.931Z,99721.25
2023-08-25T01:09:33.661Z,99706.19
2023-08-25T01:12:05.493Z,99724.78
2023-08-25T01:14:44.483Z,99735.81
2023-08-25T01:17:17.104Z,99747.63
2023-08-25T01:19:58.188Z,99752.97
2023-08-25T01:22:35.066Z,99781.13
2023-08-25T01:25:24.753Z,99790.16
2023-08-25T01:27:53.702Z,99804.50
2023-08-25T01:30:23.956Z,99823.97
2023-08-25T01:32:52.472Z,99830.59
2023-08-25T01:35:25.209Z,99830.47
2023-08-25T01:37:59.792Z,99832.16
2023-08-25T01:40:39.527Z,99834.72
2023-08-25T01:43:11.425Z,99845.28
2023-08-25T01:45:39.239Z,99844.28
2023-08-25T01:48:08.877Z,99846.00
2023-08-25T01:50:37.275Z,99852.00
2023-08-25T01:53:05.290Z,99851.78
2023-08-25T01:55:35.045Z,99860.50
2023-08-25T01:58:04.239Z,99850.59
2023-08-25T02:00:31.987Z,99856.34
2023-08-25T02:03:01.107Z,99857.00
2023-08-25T02:05:29.830Z,99867.88
2023-08-25T02:07:57.614Z,99867.19
2023-08-25T02:10:25.302Z,99876.16
2023-08-25T02:12:54.459Z,99866.63
2023-08-25T02:15:22.154Z,99869.44
2023-08-25T02:17:49.986Z,99873.88
2023-08-25T02:20:17.901Z,99876.19
2023-08-25T02:22:45.556Z,99868.03
2023-08-25T02:25:13.231Z,99873.88
2023-08-25T02:27:41.118Z,99874.34
2023-08-25T02:30:11.760Z,99875.88
2023-08-25T02:32:39.898Z,99869.53
2023-08-25T02:35:09.487Z,99873.53
2023-08-25T02:37:37.292Z,99867.59
2023-08-25T02:40:05.674Z,99872.03
2023-08-25T02:42:33.376Z,99875.38
2023-08-25T02:45:01.034Z,99872.38
2023-08-25T02:47:31.346Z,99867.69
2023-08-25T02:49:59.250Z,99858.50
2023-08-25T02:52:27.099Z,99852.22
2023-08-25T02:54:54.966Z,99854.28
2023-08-25T02:57:23.941Z,99852.88
2023-08-25T02:59:51.607Z,99849.88
2023-08-25T03:02:19.406Z,99847.63
2023-08-25T03:04:48.473Z,99858.84
2023-08-25T03:07:16.124Z,99844.47
2023-08-25T03:09:43.855Z,99859.16
2023-08-25T03:12:11.717Z,99844.59
2023-08-25T03:14:39.817Z,99846.94
2023-08-25T03:17:07.541Z,99843.06
2023-08-25T03:19:35.281Z,99833.88
2023-08-25T03:22:04.387Z,99846.91
2023-08-25T03:24:34.484Z,99842.19
2023-08-25T03:27:02.245Z,99848.59
2023-08-25T03:29:30.020Z,99840.78
2023-08-25T03:31:57.764Z,99831.38
2023-08-25T03:34:25.547Z,99842.31
2023-08-25T03:36:53.270Z,99835.53
2023-08-25T03:39:22.750Z,99839.25
2023-08-25T03:41:50.504Z,99834.59
2023-08-25T03:44:18.477Z,99828.66
2023-08-25T03:46:46.999Z,99834.47
2023-08-25T03:49:14.744Z,99829.78
2023-08-25T03:51:43.206Z,99837.00
2023-08-25T03:54:12.576Z,99827.59
2023-08-25T03:56:41.709Z,99816.28
2023-08-25T03:59:12.476Z,99818.97
2023-08-25T04:01:40.245Z,99821.06
2023-08-25T04:04:08.186Z,99816.75
2023-08-25T04:06:35.974Z,99820.69
2023-08-25T04:09:03.828Z,99820.94
2023-08-25T04:11:31.568Z,99827.09
2023-08-25T04:14:00.595Z,99810.66
2023-08-25T04:16:28.622Z,99805.31
2023-08-25T04:18:56.518Z,99819.72
2023-08-25T04:21:24.245Z,99814.38
2023-08-25T04:23:51.952Z,99816.00
2023-08-25T04:26:19.851Z,99816.00
2023-08-25T04:28:47.514Z,99813.13
2023-08-25T04:31:16.992Z,99817.44
2023-08-25T04:33:50.386Z,99805.69
2023-08-25T04:36:18.169Z,99807.31
2023-08-25T04:38:45.856Z,99794.50
2023-08-25T04:41:13.793Z,99800.22
2023-08-25T04:43:41.514Z,99804.31
2023-08-25T04:46:09.424Z,99803.03
2023-08-25T04:48:39.272Z,99799.69
2023-08-25T04:51:09.732Z,99798.75
2023-08-25T04:53:37.444Z,99798.88
2023-08-25T04:56:05.629Z,99799.00
2023-08-25T04:58:33.656Z,99802.41
2023-08-25T05:01:01.423Z,99794.53
2023-08-25T05:03:29.351Z,99804.09
2023-08-25T05:05:58.521Z,99805.13
2023-08-25T05:08:27.405Z,99800.00
2023-08-25T05:10:55.829Z,99805.84
2023-08-25T05:13:26.429Z,99808.16
2023-08-25T05:15:55.761Z,99813.19
2023-08-25T05:18:42.251Z,99803.47
2023-08-25T05:21:13.577Z,99814.44
2023-08-25T05:23:47.338Z,99804.47
2023-08-25T05:26:15.416Z,99811.72
2023-08-25T05:28:46.491Z,99814.59
2023-08-25T05:31:14.241Z,99812.13
2023-08-25T05:34:04.847Z,99815.00
2023-08-25T05:36:37.157Z,99828.38
2023-08-25T05:39:06.860Z,99826.94
2023-08-25T05:41:35.010Z,99823.63
2023-08-25T05:44:03.286Z,99827.53
2023-08-25T05:46:31.359Z,99828.78
2023-08-25T05:48:59.772Z,99840.00
2023-08-25T05:51:28.841Z,99837.13
2023-08-25T05:53:58.144Z,99844.00
2023-08-25T05:56:27.017Z,99844.41
2023-08-25T05:58:54.742Z,99835.94
2023-08-25T06:01:22.487Z,99832.03
2023-08-25T06:03:50.246Z,99824.84
2023-08-25T06:06:18.101Z,99826.56
2023-08-25T06:08:45.832Z,99826.13
2023-08-25T06:11:15.186Z,99817.91
2023-08-25T06:13:42.969Z,99809.06
2023-08-25T06:16:11.168Z,99814.78
2023-08-25T06:18:41.281Z,99812.97
2023-08-25T06:21:09.025Z,99802.88
2023-08-25T06:23:36.709Z,99795.69
2023-08-25T06:26:04.354Z,99800.91
2023-08-25T06:28:34.498Z,99799.09
2023-08-25T06:31:02.167Z,99811.53
2023-08-25T06:33:31.110Z,99811.09
2023-08-25T06:35:59.189Z,99814.97
2023-08-25T06:38:26.884Z,99814.78
2023-08-25T06:40:56.051Z,99810.50
2023-08-25T06:43:23.842Z,99800.94
2023-08-25T06:45:52.930Z,99802.59
2023-08-25T06:48:20.819Z,99811.28
2023-08-25T06:50:48.497Z,99809.75
2023-08-25T06:53:16.517Z,99789.31
2023-08-25T06:55:44.465Z,99778.88
2023-08-25T06:58:12.348Z,99772.94
2023-08-25T07:00:40.131Z,99777.59
2023-08-25T07:03:09.310Z,99768.97
2023-08-25T07:05:39.191Z,99772.00
2023-08-25T07:08:07.461Z,99768.25
2023-08-25T07:10:35.725Z,99771.84
2023-08-25T07:13:03.914Z,99765.44
2023-08-25T07:15:31.665Z,99764.91
2023-08-25T07:18:04.899Z,99774.06
2023-08-25T07:20:34.162Z,99793.50
2023-08-25T07:23:01.799Z,99796.81
2023-08-25T07:25:29.868Z,99797.69
2023-08-25T07:27:57.506Z,99798.53
2023-08-25T07:30:25.188Z,99793.75
2023-08-25T07:32:52.886Z,99793.28
2023-08-25T07:35:20.991Z,99797.13
2023-08-25T07:37:52.844Z,99797.72
2023-08-25T07:40:22.705Z,99791.59
2023-08-25T07:42:50.311Z,99793.03
2023-08-25T07:45:20.202Z,99803.66
2023-08-25T07:47:48.065Z,99788.06
2023-08-25T07:50:15.813Z,99795.94
2023-08-25T07:52:43.671Z,99800.84
2023-08-25T07:55:13.263Z,99798.69
2023-08-25T07:57:41.054Z,99797.03
2023-08-25T08:00:13.744Z,99797.81
2023-08-25T08:02:41.612Z,99796.19
2023-08-25T08:05:09.433Z,99799.13
2023-08-25T08:07:37.208Z,99801.69
2023-08-25T08:10:05.709Z,99804.22
2023-08-25T08:12:34.968Z,99796.97
2023-08-25T08:15:02.780Z,99812.31
2023-08-25T08:17:30.630Z,99817.28
2023-08-25T08:19:58.310Z,99824.94
2023-08-25T08:22:27.229Z,99820.69
2023-08-25T08:24:55.295Z,99815.00
2023-08-25T08:27:24.560Z,99796.66
2023-08-25T08:29:53.851Z,99807.44
2023-08-25T08:32:22.580Z,99815.56
2023-08-25T08:34:50.462Z,99825.41
2023-08-25T08:37:18.369Z,99825.34
2023-08-25T08:39:46.456Z,99814.66
2023-08-25T08:42:15.483Z,99817.66
2023-08-25T08:44:47.781Z,99814.44
2023-08-25T08:47:17.716Z,99821.53
2023-08-25T08:49:47.076Z,99829.41
2023-08-25T08:52:14.824Z,99828.41
2023-08-25T08:54:43.527Z,99835.06
2023-08-25T08:57:14.070Z,99843.88
2023-08-25T08:59:42.293Z,99866.31
2023-08-25T09:02:12.125Z,99878.38
2023-08-25T09:04:43.015Z,99889.88
2023-08-25T09:07:13.860Z,99895.63
2023-08-25T09:09:42.321Z,99914.63
2023-08-25T09:12:10.473Z,99928.25
2023-08-25T09:14:38.142Z,99938.78
2023-08-25T09:17:07.321Z,99946.06
2023-08-25T09:19:35.738Z,99949.00
2023-08-25T09:22:04.803Z,99930.25
2023-08-25T09:24:34.377Z,99922.91
2023-08-25T09:27:02.166Z,99921.53
2023-08-25T09:29:42.061Z,99914.75
2023-08-25T09:32:15.256Z,99916.06
2023-08-25T09:34:43.810Z,99910.06
2023-08-25T09:37:12.800Z,99924.59
2023-08-25T09:39:44.531Z,99918.31
2023-08-25T09:42:12.809Z,99903.66
2023-08-25T09:44:43.115Z,99899.81
2023-08-25T09:47:12.090Z,99902.41
2023-08-25T09:49:40.662Z,99895.31
2023-08-25T09:52:08.924Z,99886.34
2023-08-25T09:54:37.980Z,99882.72
2023-08-25T09:57:06.030Z,99888.25
2023-08-25T09:59:33.723Z,99879.00
2023-08-25T10:02:02.128Z,99866.00
2023-08-25T10:04:30.006Z,99882.63
2023-08-25T10:06:57.829Z,99893.28
2023-08-25T10:09:26.130Z,99885.66
2023-08-25T10:11:57.438Z,99881.06
2023-08-25T10:14:27.930Z,99848.13
2023-08-25T10:16:55.658Z,99840.50
2023-08-25T10:19:25.533Z,99839.84
2023-08-25T10:21:54.282Z,99814.19
2023-08-25T10:24:23.547Z,99814.63
2023-08-25T10:26:53.011Z,99811.66
2023-08-25T10:29:25.392Z,99803.25
2023-08-25T10:31:59.261Z,99778.66
2023-08-25T10:34:35.306Z,99791.00
2023-08-25T10:37:07.390Z,99790.97
2023-08-25T10:39:49.317Z,99794.63
2023-08-25T10:42:21.467Z,99779.00
2023-08-25T10:44:55.217Z,99782.25
2023-08-25T10:47:23.686Z,99754.53
2023-08-25T10:49:55.190Z,99761.28
2023-08-25T10:52:23.709Z,99740.56
2023-08-25T10:54:53.357Z,99745.75
2023-08-25T10:57:22.351Z,99730.53
2023-08-25T10:59:58.847Z,99726.63
2023-08-25T11:02:36.588Z,99729.66
2023-08-25T11:05:45.975Z,99746.75
2023-08-25T11:08:30.408Z,99753.81
2023-08-25T11:11:12.095Z,99756.50
2023-08-25T11:13:40.914Z,99763.81
2023-08-25T11:16:12.123Z,99784.59
2023-08-25T11:18:41.519Z,99804.84
2023-08-25T11:21:09.373Z,99832.34
2023-08-25T11:23:39.180Z,99839.38
2023-08-25T11:26:08.998Z,99854.69
2023-08-25T11:28:37.000Z,99871.25
2023-08-25T11:31:05.723Z,99886.41
2023-08-25T11:33:35.987Z,99880.56
2023-08-25T11:36:05.662Z,99898.59
2023-08-25T11:38:33.831Z,99914.19
2023-08-25T11:41:01.715Z,99911.53
2023-08-25T11:43:30.845Z,99919.91
2023-08-25T11:45:59.258Z,99921.00
2023-08-25T11:48:27.185Z,99940.72
2023-08-25T11:50:56.490Z,99925.78
2023-08-25T11:53:24.260Z,99925.22
2023-08-25T11:56:05.774Z,99918.28
2023-08-25T11:58:35.076Z,99912.06
2023-08-25T12:01:06.099Z,99901.50
2023-08-25T12:03:33.922Z,99901.75
2023-08-25T12:06:06.468Z,99895.53
2023-08-25T12:08:34.877Z,99899.41
2023-08-25T12:11:03.260Z,99915.06
2023-08-25T12:13:33.042Z,99924.97
2023-08-25T12:16:00.754Z,99933.25
2023-08-25T12:18:35.821Z,99933.94
2023-08-25T12:21:07.272Z,99936.31
2023-08-25T12:23:36.834Z,99918.03
2023-08-25T12:26:05.749Z,99888.22
2023-08-25T12:28:34.082Z,99896.19
2023-08-25T12:31:02.628Z,99895.84
2023-08-25T12:33:30.734Z,99881.97
2023-08-25T12:35:59.753Z,99864.31
2023-08-25T12:38:31.028Z,99837.47
2023-08-25T12:41:02.339Z,99807.06
2023-08-25T12:43:29.317Z,99772.94
2023-08-25T12:45:57.715Z,99744.63
2023-08-25T12:48:25.682Z,99757.88
2023-08-25T12:50:53.317Z,99747.66
2023-08-25T12:53:21.307Z,99715.88
2023-08-25T12:55:50.406Z,99715.41
2023-08-25T12:58:18.110Z,99722.97
2023-08-25T13:00:45.881Z,99740.00
2023-08-25T13:03:13.949Z,99729.19
2023-08-25T13:05:42.548Z,99737.00
2023-08-25T13:08:10.466Z,99740.19
2023-08-25T13:10:38.167Z,99732.94
2023-08-25T13:13:07.673Z,99729.69
2023-08-25T13:15:36.239Z,99717.53
2023-08-25T13:18:04.532Z,99693.66
2023-08-25T13:20:32.224Z,99692.22
2023-08-25T13:22:59.898Z,99686.25
2023-08-25T13:25:27.570Z,99685.44
2023-08-25T13:27:55.518Z,99677.84
2023-08-25T13:30:24.791Z,99665.34
2023-08-25T13:32:52.682Z,99664.72
2023-08-25T13:35:20.372Z,99667.53
2023-08-25T13:37:48.053Z,99675.81
2023-08-25T13:40:15.701Z,99689.78
2023-08-25T13:42:43.374Z,99684.91
2023-08-25T13:45:11.904Z,99664.63
2023-08-25T13:47:41.476Z,99668.03
2023-08-25T13:50:11.315Z,99668.88
2023-08-25T13:52:39.190Z,99666.38
2023-08-25T13:55:08.216Z,99677.78
2023-08-25T13:57:38.870Z,99682.38
2023-08-25T14:00:08.304Z,99682.91
2023-08-25T14:02:44.649Z,99685.31
2023-08-25T14:05:14.033Z,99704.75
2023-08-25T14:07:42.135Z,99707.19
2023-08-25T14:10:10.805Z,99711.84
2023-08-25T14:12:39.612Z,99706.94
2023-08-25T14:15:09.178Z,99712.22
2023-08-25T14:17:37.345Z,99707.38
2023-08-25T14:20:08.035Z,99711.72
2023-08-25T14:22:35.739Z,99701.09
2023-08-25T14:25:03.552Z,99712.44
2023-08-25T14:27:31.383Z,99717.81
2023-08-25T14:30:00.979Z,99703.50
2023-08-25T14:32:29.111Z,99727.91
2023-08-25T14:34:57.185Z,99734.56
2023-08-25T14:37:26.245Z,99736.91
2023-08-25T14:39:54.448Z,99728.00
2023-08-25T14:42:22.399Z,99711.84
2023-08-25T14:44:50.123Z,99711.97
2023-08-25T14:47:17.902Z,99706.28
2023-08-25T14:49:45.770Z,99708.75
2023-08-25T14:52:13.592Z,99717.16
2023-08-25T14:54:43.304Z,99713.44
2023-08-25T14:57:11.154Z,99705.88
2023-08-25T14:59:38.875Z,99693.69
2023-08-25T15:02:06.568Z,99702.34
2023-08-25T15:04:34.440Z,99697.50
2023-08-25T15:07:02.114Z,99702.09
2023-08-25T15:09:29.849Z,99719.09
2023-08-25T15:11:58.966Z,99720.72
2023-08-25T15:14:26.770Z,99721.16
2023-08-25T15:16:55.079Z,99715.69
2023-08-25T15:19:22.860Z,99716.94
2023-08-25T15:21:50.530Z,99700.84
2023-08-25T15:24:18.563Z,99701.81
2023-08-25T15:26:46.663Z,99706.00
2023-08-25T15:29:15.730Z,99703.47
2023-08-25T15:31:43.471Z,99689.31
2023-08-25T15:34:11.532Z,99682.00
2023-08-25T15:36:39.351Z,99685.31
2023-08-25T15:39:07.242Z,99682.41
2023-08-25T15:41:37.647Z,99684.66
2023-08-25T15:44:05.906Z,99686.38
2023-08-25T15:46:34.994Z,99689.19
2023-08-25T15:49:03.149Z,99678.13
2023-08-25T15:51:30.923Z,99679.78
2023-08-25T15:53:58.597Z,99679.31
2023-08-25T15:56:26.270Z,99664.50
2023-08-25T15:58:53.942Z,99679.75
2023-08-25T16:01:21.640Z,99679.44
2023-08-25T16:03:50.723Z,99672.97
2023-08-25T16:06:18.524Z,99682.22
2023-08-25T16:08:46.254Z,99677.06
2023-08-25T16:11:13.922Z,99689.03
2023-08-25T16:13:43.085Z,99676.06
2023-08-25T16:16:11.241Z,99674.44
2023-08-25T16:18:41.451Z,99671.75
2023-08-25T16:21:10.913Z,99671.00
2023-08-25T16:23:39.687Z,99673.97
2023-08-25T16:26:07.571Z,99678.31
2023-08-25T16:28:35.323Z,99685.09
2023-08-25T16:31:04.854Z,99682.44
2023-08-25T16:33:33.583Z,99685.69
2023-08-25T16:36:01.583Z,99686.22
2023-08-25T16:38:31.404Z,99690.84
2023-08-25T16:40:59.160Z,99681.88
2023-08-25T16:43:27.018Z,99682.44
2023-08-25T16:45:55.351Z,99680.53
2023-08-25T16:48:23.461Z,99689.75
2023-08-25T16:50:51.884Z,99691.09
2023-08-25T16:53:20.282Z,99687.28
2023-08-25T16:55:49.358Z,99679.19
2023-08-25T16:58:17.110Z,99679.19
2023-08-25T17:00:46.999Z,99681.34
2023-08-25T17:03:15.408Z,99675.69
2023-08-25T17:05:43.146Z,99674.31
2023-08-25T17:08:10.910Z,99662.44
2023-08-25T17:10:38.857Z,99653.00
2023-08-25T17:13:08.219Z,99652.19
2023-08-25T17:15:37.525Z,99658.13
2023-08-25T17:18:06.438Z,99659.75
2023-08-25T17:20:34.543Z,99667.81
2023-08-25T17:23:02.431Z,99659.94
2023-08-25T17:25:33.746Z,99664.53
2023-08-25T17:28:01.446Z,99665.09
2023-08-25T17:30:31.012Z,99660.22
2023-08-25T17:32:58.962Z,99665.06
2023-08-25T17:35:26.802Z,99657.50
2023-08-25T17:37:54.506Z,99668.81
2023-08-25T17:40:22.181Z,99670.16
2023-08-25T17:42:49.852Z,99668.50
2023-08-25T17:45:17.736Z,99669.84
2023-08-25T17:47:46.842Z,99670.59
2023-08-25T17:50:14.613Z,99678.69
2023-08-25T17:52:42.334Z,99681.59
2023-08-25T17:55:10.416Z,99677.81
2023-08-25T17:57:38.820Z,99671.00
2023-08-25T18:00:08.308Z,99670.19
2023-08-25T18:02:41.069Z,99668.03
2023-08-25T18:05:11.036Z,99671.56
2023-08-25T18:07:38.754Z,99673.44
2023-08-25T18:10:07.640Z,99672.88
2023-08-25T18:12:35.395Z,99670.19
2023-08-25T18:15:04.557Z,99676.66
2023-08-25T18:17:32.475Z,99675.03
2023-08-25T18:20:00.498Z,99671.78
2023-08-25T18:22:29.881Z,99676.63
2023-08-25T18:24:57.552Z,99685.22
2023-08-25T18:27:25.589Z,99673.91
2023-08-25T18:29:53.300Z,99674.41
2023-08-25T18:32:21.818Z,99689.75
2023-08-25T18:34:49.797Z,99684.31
2023-08-25T18:37:17.614Z,99689.44
2023-08-25T18:39:46.944Z,99691.81
2023-08-25T18:42:14.634Z,99703.69
2023-08-25T18:44:42.295Z,99699.06
2023-08-25T18:47:10.035Z,99701.19
2023-08-25T18:49:37.851Z,99700.09
2023-08-25T18:52:06.515Z,99694.41
2023-08-25T18:54:34.143Z,99691.44
2023-08-25T18:57:03.316Z,99687.09
2023-08-25T18:59:30.978Z,99697.00
2023-08-25T19:01:58.758Z,99716.06
2023-08-25T19:04:26.450Z,99709.78
2023-08-25T19:06:54.456Z,99701.66
2023-08-25T19:09:22.992Z,99691.41
2023-08-25T19:11:50.734Z,99703.22
2023-08-25T19:14:19.747Z,99699.44
2023-08-25T19:16:47.419Z,99713.41
2023-08-25T19:19:15.070Z,99713.94
2023-08-25T19:21:42.783Z,99696.41
2023-08-25T19:24:10.462Z,99699.63
2023-08-25T19:26:38.156Z,99706.28
2023-08-25T19:29:07.404Z,99706.72
2023-08-25T19:31:36.580Z,99706.59
2023-08-25T19:34:05.499Z,99708.94
2023-08-25T19:36:39.301Z,99702.13
2023-08-25T19:39:07.802Z,99701.25
2023-08-25T19:41:35.507Z,99704.72
2023-08-25T19:44:03.465Z,99714.09
2023-08-25T19:46:31.207Z,99705.41
2023-08-25T19:49:01.189Z,99710.22
2023-08-25T19:51:29.150Z,99691.41
2023-08-25T19:53:57.179Z,99691.16
2023-08-25T19:56:25.185Z,99699.00
2023-08-25T19:58:53.576Z,99702.25
2023-08-25T20:01:21.371Z,99707.13
2023-08-25T20:03:49.337Z,99728.44
2023-08-25T20:06:18.652Z,99744.91
2023-08-25T20:08:47.788Z,99740.09
2023-08-25T20:11:16.036Z,99729.34
2023-08-25T20:13:43.786Z,99747.28
2023-08-25T20:16:11.787Z,99757.41
2023-08-25T20:18:39.447Z,99751.97
2023-08-25T20:21:07.729Z,99733.63
2023-08-25T20:23:38.666Z,99732.50
2023-08-25T20:26:06.982Z,99730.56
2023-08-25T20:28:38.863Z,99741.00
2023-08-25T20:31:06.725Z,99741.50
2023-08-25T20:33:34.942Z,99739.88
2023-08-25T20:36:04.447Z,99729.34
2023-08-25T20:38:33.289Z,99742.81
2023-08-25T20:41:04.559Z,99733.59
2023-08-25T20:43:32.337Z,99739.97
2023-08-25T20:46:16.418Z,99738.28
2023-08-25T20:48:47.890Z,99742.19
2023-08-25T20:51:15.986Z,99744.25
2023-08-25T20:53:43.915Z,99741.72
2023-08-25T20:56:12.980Z,99733.59
2023-08-25T20:58:40.858Z,99737.53
2023-08-25T21:01:10.026Z,99733.38
2023-08-25T21:03:38.323Z,99736.47
2023-08-25T21:06:06.854Z,99737.66
2023-08-25T21:08:35.407Z,99755.28
2023-08-25T21:11:04.713Z,99757.16
2023-08-25T21:13:34.673Z,99755.78
2023-08-25T21:16:02.863Z,99764.31
2023-08-25T21:18:30.614Z,99773.34
2023-08-25T21:21:01.025Z,99769.25
2023-08-25T21:23:28.961Z,99778.94
2023-08-25T21:26:00.364Z,99777.09
2023-08-25T21:28:28.934Z,99784.66
2023-08-25T21:30:59.994Z,99781.75
2023-08-25T21:33:29.143Z,99775.28
2023-08-25T21:35:56.853Z,99775.88
2023-08-25T21:38:24.622Z,99775.41
2023-08-25T21:40:52.251Z,99770.50
2023-08-25T21:43:20.012Z,99772.06
2023-08-25T21:45:49.081Z,99771.13
2023-08-25T21:48:18.223Z,99770.47
2023-08-25T21:50:46.532Z,99769.25
2023-08-25T21:53:14.233Z,99764.00
2023-08-25T21:55:42.051Z,99771.16
2023-08-25T21:58:09.873Z,99763.84
2023-08-25T22:00:37.696Z,99768.03
2023-08-25T22:03:06.293Z,99772.03
2023-08-25T22:05:37.742Z,99769.66
2023-08-25T22:08:06.229Z,99766.28
2023-08-25T22:10:36.409Z,99771.75
2023-08-25T22:13:04.415Z,99777.19
2023-08-25T22:15:32.363Z,99778.91
2023-08-25T22:18:00.789Z,99777.16
2023-08-25T22:20:28.811Z,99770.25
2023-08-25T22:22:58.058Z,99773.75
2023-08-25T22:25:26.060Z,99769.66
2023-08-25T22:27:53.760Z,99773.66
2023-08-25T22:30:21.458Z,99776.81
2023-08-25T22:35:20.014Z,99781.94
2023-08-25T22:37:47.657Z,99785.91
2023-08-25T22:40:16.741Z,99790.38
2023-08-25T22:42:44.378Z,99802.66
2023-08-25T22:45:12.154Z,99796.72
2023-08-25T22:47:39.927Z,99795.31
2023-08-25T22:50:08.411Z,99797.16
2023-08-25T22:52:36.078Z,99795.53
2023-08-25T22:55:03.825Z,99796.63
2023-08-25T22:57:32.827Z,99798.72
2023-08-25T23:00:00.540Z,99798.63
2023-08-25T23:02:28.260Z,99796.41
2023-08-25T23:04:56.036Z,99805.50
2023-08-25T23:07:23.738Z,99808.69
2023-08-25T23:09:51.479Z,99815.66
2023-08-25T23:12:19.139Z,99815.91
2023-08-25T23:14:48.157Z,99817.78
2023-08-25T23:17:15.833Z,99810.78
2023-08-25T23:19:43.660Z,99810.53
2023-08-25T23:22:12.895Z,99816.97
2023-08-25T23:24:44.813Z,99820.09
2023-08-25T23:27:13.444Z,99811.47
2023-08-25T23:29:41.640Z,99814.41
2023-08-25T23:32:10.918Z,99813.84
2023-08-25T23:34:38.592Z,99817.56
2023-08-25T23:37:06.306Z,99813.25
2023-08-25T23:39:34.019Z,99812.66
2023-08-25T23:42:01.720Z,99798.69
2023-08-25T23:44:29.528Z,99798.94
2023-08-25T23:46:57.403Z,99798.31
2023-08-25T23:49:26.448Z,99791.56
2023-08-25T23:51:54.417Z,99799.84
2023-08-25T23:54:22.097Z,99796.66
2023-08-25T23:56:49.820Z,99799.97
2023-08-25T23:59:17.607Z,99793.06
